createdAt,value
2017-08-24T00:02:23.751Z,87.85
2017-08-24T00:04:52.226Z,87.93
2017-08-24T00:07:20.711Z,87.30
2017-08-24T00:09:49.189Z,88.60
2017-08-24T00:12:17.674Z,88.02
2017-08-24T00:14:46.248Z,88.59
2017-08-24T00:17:14.682Z,88.93
2017-08-24T00:19:43.108Z,89.32
2017-08-24T00:22:11.548Z,88.22
2017-08-24T00:24:40.084Z,88.97
2017-08-24T00:27:08.566Z,88.27
2017-08-24T00:29:37.040Z,88.60
2017-08-24T00:32:05.530Z,88.14
2017-08-24T00:34:34.010Z,88.80
2017-08-24T00:37:02.494Z,88.04
2017-08-24T00:39:30.933Z,88.44
2017-08-24T00:41:59.451Z,89.37
2017-08-24T00:44:27.938Z,89.37
2017-08-24T00:46:57.232Z,89.13
2017-08-24T00:49:25.655Z,89.31
2017-08-24T00:51:54.113Z,88.67
2017-08-24T00:54:22.586Z,89.26
2017-08-24T00:56:51.067Z,88.29
2017-08-24T00:59:19.505Z,88.37
2017-08-24T01:01:48.031Z,89.41
2017-08-24T01:04:16.513Z,89.00
2017-08-24T01:06:44.988Z,88.99
2017-08-24T01:09:13.429Z,89.52
2017-08-24T01:11:41.959Z,89.24
2017-08-24T01:14:10.411Z,89.32
2017-08-24T01:16:38.922Z,88.95
2017-08-24T01:19:07.361Z,89.01
2017-08-24T01:21:35.778Z,90.04
2017-08-24T01:24:04.224Z,90.49
2017-08-24T01:26:32.643Z,90.76
2017-08-24T01:29:01.085Z,90.87
2017-08-24T01:31:29.595Z,90.91
2017-08-24T01:33:58.040Z,91.48
2017-08-24T01:36:26.555Z,91.49
2017-08-24T01:38:55.055Z,91.43
2017-08-24T01:41:23.527Z,91.56
2017-08-24T01:43:52.016Z,90.32
2017-08-24T01:46:24.397Z,90.52
2017-08-24T01:48:52.856Z,90.26
2017-08-24T01:51:21.294Z,90.37
2017-08-24T01:53:49.739Z,90.20
2017-08-24T01:56:18.155Z,90.74
2017-08-24T01:58:46.601Z,91.00
2017-08-24T02:01:15.072Z,90.46
2017-08-24T02:03:43.542Z,90.14
2017-08-24T02:06:11.976Z,90.92
2017-08-24T02:08:40.433Z,90.55
2017-08-24T02:11:08.898Z,90.54
2017-08-24T02:13:37.370Z,91.20
2017-08-24T02:16:05.865Z,91.46
2017-08-24T02:18:34.357Z,90.98
2017-08-24T02:21:02.829Z,91.40
2017-08-24T02:23:31.314Z,90.94
2017-08-24T02:25:59.782Z,91.21
2017-08-24T02:28:28.263Z,91.70
2017-08-24T02:30:56.725Z,91.45
2017-08-24T02:33:25.231Z,91.17
2017-08-24T02:35:53.725Z,91.21
2017-08-24T02:38:22.196Z,92.01
2017-08-24T02:40:50.635Z,92.42
2017-08-24T02:43:19.169Z,92.31
2017-08-24T02:45:47.634Z,91.92
2017-08-24T02:48:16.128Z,91.27
2017-08-24T02:50:44.599Z,91.90
2017-08-24T02:53:13.089Z,91.29
2017-08-24T02:55:41.531Z,92.37
2017-08-24T02:58:09.955Z,92.11
2017-08-24T03:00:38.448Z,91.90
2017-08-24T03:03:06.916Z,91.90
2017-08-24T03:05:35.369Z,91.36
2017-08-24T03:08:04.605Z,92.07
2017-08-24T03:10:33.073Z,92.03
2017-08-24T03:13:01.570Z,92.23
2017-08-24T03:15:30.027Z,91.89
2017-08-24T03:17:58.522Z,91.92
2017-08-24T03:20:26.964Z,91.16
2017-08-24T03:22:55.488Z,91.38
2017-08-24T03:25:23.968Z,90.85
2017-08-24T03:27:52.462Z,90.68
2017-08-24T03:30:20.926Z,90.46
2017-08-24T03:32:49.416Z,90.89
2017-08-24T03:35:17.877Z,91.49
2017-08-24T03:37:46.380Z,91.16
2017-08-24T03:40:14.879Z,91.00
2017-08-24T03:42:43.337Z,91.15
2017-08-24T03:45:11.768Z,91.14
2017-08-24T03:47:40.224Z,91.59
2017-08-24T03:50:08.679Z,90.63
2017-08-24T03:52:37.119Z,91.04
2017-08-24T03:55:05.553Z,91.17
2017-08-24T03:57:34.032Z,91.84
2017-08-24T04:00:02.522Z,91.97
2017-08-24T04:02:30.996Z,91.60
2017-08-24T04:04:59.429Z,91.48
2017-08-24T04:07:27.884Z,90.91
2017-08-24T04:09:56.354Z,90.45
2017-08-24T04:12:24.795Z,90.54
2017-08-24T04:14:53.291Z,90.32
2017-08-24T04:17:21.785Z,90.20
2017-08-24T04:19:50.215Z,90.49
2017-08-24T04:22:18.647Z,90.50
2017-08-24T04:24:47.138Z,89.89
2017-08-24T04:27:15.583Z,89.68
2017-08-24T04:29:44.104Z,89.38
2017-08-24T04:32:12.539Z,90.31
2017-08-24T04:34:40.960Z,90.53
2017-08-24T04:37:09.432Z,90.71
2017-08-24T04:39:37.915Z,90.84
2017-08-24T04:42:06.395Z,90.46
2017-08-24T04:44:34.833Z,90.84
2017-08-24T04:47:03.304Z,90.83
2017-08-24T04:49:31.731Z,91.18
2017-08-24T04:52:00.224Z,90.02
2017-08-24T04:54:29.537Z,90.43
2017-08-24T04:56:57.963Z,90.45
2017-08-24T04:59:26.422Z,90.27
2017-08-24T05:01:54.877Z,90.51
2017-08-24T05:04:23.356Z,89.84
2017-08-24T05:06:51.780Z,88.64
2017-08-24T05:09:20.306Z,89.05
2017-08-24T05:11:48.809Z,89.25
2017-08-24T05:14:17.296Z,89.05
2017-08-24T05:16:45.764Z,88.78
2017-08-24T05:19:14.255Z,88.60
2017-08-24T05:21:42.738Z,87.97
2017-08-24T05:24:11.183Z,87.73
2017-08-24T05:26:39.700Z,88.16
2017-08-24T05:29:08.182Z,87.50
2017-08-24T05:31:36.599Z,88.33
2017-08-24T05:34:05.044Z,87.62
2017-08-24T05:39:08.010Z,86.69
2017-08-24T05:41:36.530Z,86.20
2017-08-24T05:44:04.997Z,87.14
2017-08-24T05:46:33.414Z,86.94
2017-08-24T05:49:01.972Z,86.56
2017-08-24T05:51:30.409Z,85.64
2017-08-24T05:53:58.936Z,85.44
2017-08-24T05:56:27.430Z,85.37
2017-08-24T05:58:55.896Z,84.21
2017-08-24T06:01:24.338Z,83.81
2017-08-24T06:03:52.874Z,83.94
2017-08-24T06:06:21.333Z,82.93
2017-08-24T06:08:49.834Z,83.64
2017-08-24T06:11:18.317Z,83.94
2017-08-24T06:13:46.803Z,83.14
2017-08-24T06:16:15.256Z,82.64
2017-08-24T06:18:43.743Z,83.10
2017-08-24T06:21:12.205Z,82.71
2017-08-24T06:23:41.399Z,81.53
2017-08-24T06:26:09.916Z,81.05
2017-08-24T06:28:38.395Z,81.42
2017-08-24T06:31:06.843Z,81.08
2017-08-24T06:33:35.359Z,80.31
2017-08-24T06:36:03.948Z,79.86
2017-08-24T06:38:32.428Z,78.87
2017-08-24T06:41:00.902Z,78.32
2017-08-24T06:43:29.342Z,76.79
2017-08-24T06:45:57.886Z,76.82
2017-08-24T06:48:26.326Z,74.95
2017-08-24T06:50:54.817Z,75.26
2017-08-24T06:53:23.263Z,74.68
2017-08-24T06:55:51.812Z,74.00
2017-08-24T06:58:20.269Z,73.41
2017-08-24T07:00:48.764Z,73.46
2017-08-24T07:03:17.253Z,72.41
2017-08-24T07:05:45.725Z,71.83
2017-08-24T07:08:14.244Z,72.34
2017-08-24T07:10:42.797Z,71.76
2017-08-24T07:13:11.253Z,71.40
2017-08-24T07:15:39.760Z,70.94
2017-08-24T07:18:08.211Z,71.20
2017-08-24T07:20:36.734Z,70.99
2017-08-24T07:23:05.198Z,71.94
2017-08-24T07:25:33.698Z,69.88
2017-08-24T07:28:02.182Z,69.39
2017-08-24T07:30:30.613Z,68.72
2017-08-24T07:32:59.140Z,69.30
2017-08-24T07:35:27.611Z,69.64
2017-08-24T07:37:56.113Z,69.41
2017-08-24T07:40:24.579Z,69.56
2017-08-24T07:42:53.137Z,69.95
2017-08-24T07:45:21.660Z,67.70
2017-08-24T07:47:50.127Z,68.31
2017-08-24T07:50:18.622Z,66.85
2017-08-24T07:52:47.066Z,67.37
2017-08-24T07:55:15.575Z,66.95
2017-08-24T07:57:44.051Z,66.89
2017-08-24T08:00:12.541Z,66.06
2017-08-24T08:02:40.958Z,64.41
2017-08-24T08:05:09.409Z,62.64
2017-08-24T08:07:37.884Z,63.74
2017-08-24T08:10:06.336Z,62.24
2017-08-24T08:12:34.857Z,62.43
2017-08-24T08:15:03.343Z,60.89
2017-08-24T08:17:31.812Z,60.23
2017-08-24T08:20:00.292Z,59.44
2017-08-24T08:22:28.734Z,60.09
2017-08-24T08:24:57.180Z,59.79
2017-08-24T08:27:25.608Z,59.49
2017-08-24T08:29:54.124Z,59.56
2017-08-24T08:32:22.575Z,59.41
2017-08-24T08:34:51.093Z,60.68
2017-08-24T08:37:19.550Z,59.16
2017-08-24T08:39:47.986Z,58.16
2017-08-24T08:42:16.419Z,57.91
2017-08-24T08:44:44.983Z,57.14
2017-08-24T08:47:13.412Z,57.13
2017-08-24T08:49:41.853Z,57.01
2017-08-24T08:52:10.354Z,57.45
2017-08-24T08:54:38.847Z,56.83
2017-08-24T08:57:07.315Z,58.55
2017-08-24T08:59:35.826Z,57.00
2017-08-24T09:02:04.375Z,56.68
2017-08-24T09:04:32.864Z,55.95
2017-08-24T09:07:01.348Z,56.09
2017-08-24T09:09:29.823Z,55.41
2017-08-24T09:11:58.312Z,55.40
2017-08-24T09:14:26.737Z,55.13
2017-08-24T09:16:55.267Z,52.96
2017-08-24T09:19:23.760Z,53.12
2017-08-24T09:21:52.240Z,52.08
2017-08-24T09:24:20.719Z,52.52
2017-08-24T09:26:49.214Z,52.14
2017-08-24T09:29:17.677Z,52.33
2017-08-24T09:31:46.098Z,51.86
2017-08-24T09:34:14.552Z,51.79
2017-08-24T09:36:43.335Z,50.99
2017-08-24T09:39:11.823Z,48.91
2017-08-24T09:41:40.261Z,48.68
2017-08-24T09:44:08.722Z,48.97
2017-08-24T09:46:37.160Z,48.68
2017-08-24T09:49:05.654Z,47.87
2017-08-24T09:51:34.128Z,48.23
2017-08-24T09:54:02.602Z,48.02
2017-08-24T09:56:31.036Z,47.60
2017-08-24T09:58:59.582Z,47.77
2017-08-24T10:01:28.056Z,48.47
2017-08-24T10:03:56.540Z,47.42
2017-08-24T10:06:25.024Z,48.07
2017-08-24T10:08:53.461Z,46.79
2017-08-24T10:11:21.913Z,46.58
2017-08-24T10:13:50.327Z,48.07
2017-08-24T10:16:18.770Z,48.00
2017-08-24T10:18:49.742Z,46.88
2017-08-24T10:21:18.268Z,47.82
2017-08-24T10:23:46.692Z,49.14
2017-08-24T10:26:15.144Z,47.22
2017-08-24T10:28:43.674Z,48.03
2017-08-24T10:31:12.213Z,47.19
2017-08-24T10:33:40.643Z,46.36
2017-08-24T10:36:09.197Z,47.72
2017-08-24T10:38:37.649Z,46.67
2017-08-24T10:41:06.240Z,45.98
2017-08-24T10:43:34.719Z,46.68
2017-08-24T10:46:03.199Z,48.08
2017-08-24T10:48:31.632Z,46.51
2017-08-24T10:51:00.162Z,47.07
2017-08-24T10:53:28.636Z,46.69
2017-08-24T10:55:57.116Z,45.98
2017-08-24T10:58:25.606Z,45.89
2017-08-24T11:00:54.059Z,47.21
2017-08-24T11:03:22.556Z,44.16
2017-08-24T11:05:51.004Z,45.06
2017-08-24T11:08:19.450Z,44.22
2017-08-24T11:10:47.938Z,44.93
2017-08-24T11:13:16.366Z,43.62
2017-08-24T11:15:44.873Z,43.94
2017-08-24T11:18:13.424Z,43.25
2017-08-24T11:20:41.945Z,44.27
2017-08-24T11:23:10.430Z,43.17
2017-08-24T11:25:38.910Z,41.69
2017-08-24T11:28:07.384Z,42.50
2017-08-24T11:30:35.875Z,43.24
2017-08-24T11:33:04.397Z,43.86
2017-08-24T11:35:32.839Z,44.91
2017-08-24T11:38:01.322Z,45.63
2017-08-24T11:40:29.787Z,45.79
2017-08-24T11:42:58.267Z,46.09
2017-08-24T11:45:26.729Z,46.74
2017-08-24T11:47:55.240Z,47.28
2017-08-24T11:50:23.731Z,47.09
2017-08-24T11:52:52.165Z,48.02
2017-08-24T11:55:20.625Z,48.23
2017-08-24T11:57:49.064Z,48.11
2017-08-24T12:00:17.563Z,48.75
2017-08-24T12:02:46.023Z,47.05
2017-08-24T12:05:14.512Z,46.10
2017-08-24T12:07:42.991Z,46.32
2017-08-24T12:10:11.440Z,45.90
2017-08-24T12:12:39.877Z,45.25
2017-08-24T12:15:08.333Z,44.54
2017-08-24T12:17:36.759Z,44.73
2017-08-24T12:20:05.212Z,45.88
2017-08-24T12:22:33.639Z,46.12
2017-08-24T12:25:02.160Z,47.06
2017-08-24T12:27:30.655Z,47.05
2017-08-24T12:29:59.135Z,47.26
2017-08-24T12:32:27.599Z,47.95
2017-08-24T12:34:56.099Z,48.01
2017-08-24T12:37:24.556Z,48.91
2017-08-24T12:39:52.993Z,48.76
2017-08-24T12:42:21.526Z,48.77
2017-08-24T12:44:50.022Z,48.49
2017-08-24T12:47:18.487Z,48.72
2017-08-24T12:49:46.980Z,48.28
2017-08-24T12:52:15.465Z,48.05
2017-08-24T12:54:43.897Z,49.42
2017-08-24T12:57:12.358Z,49.17
2017-08-24T12:59:40.818Z,49.87
2017-08-24T13:02:09.305Z,50.59
2017-08-24T13:04:37.745Z,50.87
2017-08-24T13:07:06.252Z,51.24
2017-08-24T13:09:34.746Z,51.55
2017-08-24T13:12:03.216Z,50.57
2017-08-24T13:14:31.701Z,50.62
2017-08-24T13:17:00.174Z,50.20
2017-08-24T13:19:28.669Z,50.23
2017-08-24T13:21:57.350Z,49.81
2017-08-24T13:24:25.827Z,49.70
2017-08-24T13:26:54.637Z,49.09
2017-08-24T13:29:23.104Z,49.55
2017-08-24T13:31:51.578Z,49.78
2017-08-24T13:34:20.018Z,50.17
2017-08-24T13:36:48.449Z,49.70
2017-08-24T13:39:16.928Z,50.37
2017-08-24T13:41:45.347Z,51.02
2017-08-24T13:44:13.932Z,49.86
2017-08-24T13:46:42.360Z,48.99
2017-08-24T13:49:11.274Z,49.99
2017-08-24T13:51:39.752Z,50.91
2017-08-24T13:54:08.196Z,50.69
2017-08-24T13:56:36.703Z,50.93
2017-08-24T13:59:05.148Z,51.07
2017-08-24T14:01:33.682Z,51.09
2017-08-24T14:04:02.166Z,50.80
2017-08-24T14:06:30.630Z,51.36
2017-08-24T14:08:59.113Z,51.87
2017-08-24T14:11:27.536Z,52.58
2017-08-24T14:13:55.973Z,52.55
2017-08-24T14:16:24.474Z,52.81
2017-08-24T14:18:53.047Z,52.44
2017-08-24T14:21:21.528Z,52.27
2017-08-24T14:23:50.001Z,52.64
2017-08-24T14:26:18.506Z,52.72
2017-08-24T14:28:46.990Z,52.98
2017-08-24T14:31:15.434Z,53.26
2017-08-24T14:33:43.877Z,53.45
2017-08-24T14:36:12.336Z,53.06
2017-08-24T14:38:40.818Z,53.82
2017-08-24T14:41:09.302Z,54.58
2017-08-24T14:43:37.758Z,54.97
2017-08-24T14:46:06.195Z,56.26
2017-08-24T14:48:34.629Z,56.30
2017-08-24T14:51:03.122Z,57.76
2017-08-24T14:53:31.547Z,58.68
2017-08-24T14:56:00.076Z,59.80
2017-08-24T14:58:28.548Z,60.45
2017-08-24T15:00:57.047Z,61.77
2017-08-24T15:03:25.513Z,63.20
2017-08-24T15:05:54.019Z,64.69
2017-08-24T15:08:22.541Z,65.16
2017-08-24T15:10:51.079Z,65.42
2017-08-24T15:13:19.756Z,65.69
2017-08-24T15:15:48.226Z,65.65
2017-08-24T15:18:16.733Z,66.21
2017-08-24T15:20:45.214Z,67.00
2017-08-24T15:23:13.693Z,67.20
2017-08-24T15:25:42.124Z,68.28
2017-08-24T15:28:10.666Z,68.90
2017-08-24T15:30:39.127Z,69.45
2017-08-24T15:33:07.578Z,70.25
2017-08-24T15:35:36.018Z,71.50
2017-08-24T15:38:04.588Z,71.56
2017-08-24T15:40:33.018Z,71.70
2017-08-24T15:43:01.548Z,71.91
2017-08-24T15:45:30.030Z,72.24
2017-08-24T15:47:58.510Z,72.20
2017-08-24T15:50:26.988Z,72.09
2017-08-24T15:52:55.482Z,71.78
2017-08-24T15:55:23.924Z,71.26
2017-08-24T15:57:52.427Z,70.36
2017-08-24T16:00:20.927Z,69.59
2017-08-24T16:02:49.410Z,68.61
2017-08-24T16:05:17.890Z,67.50
2017-08-24T16:07:46.461Z,66.77
2017-08-24T16:10:14.944Z,66.16
2017-08-24T16:12:43.439Z,66.43
2017-08-24T16:15:11.921Z,67.17
2017-08-24T16:17:40.402Z,66.34
2017-08-24T16:20:08.838Z,66.31
2017-08-24T16:22:37.361Z,66.86
2017-08-24T16:25:05.845Z,66.89
2017-08-24T16:27:34.289Z,66.65
2017-08-24T16:30:02.804Z,67.10
2017-08-24T16:32:32.011Z,67.41
2017-08-24T16:35:00.490Z,67.46
2017-08-24T16:37:28.937Z,68.04
2017-08-24T16:39:57.458Z,68.81
2017-08-24T16:42:25.896Z,68.08
2017-08-24T16:44:54.422Z,68.01
2017-08-24T16:47:22.851Z,69.02
2017-08-24T16:49:51.378Z,69.45
2017-08-24T16:52:19.852Z,69.69
2017-08-24T16:54:48.349Z,69.91
2017-08-24T16:57:16.831Z,69.83
2017-08-24T16:59:45.292Z,69.53
2017-08-24T17:02:13.786Z,69.90
2017-08-24T17:04:42.280Z,70.50
2017-08-24T17:07:10.745Z,70.32
2017-08-24T17:09:39.232Z,71.08
2017-08-24T17:12:07.699Z,72.17
2017-08-24T17:14:36.233Z,72.00
2017-08-24T17:17:04.767Z,72.35
2017-08-24T17:19:33.201Z,71.65
2017-08-24T17:22:01.735Z,72.04
2017-08-24T17:24:30.220Z,72.15
2017-08-24T17:26:58.708Z,72.65
2017-08-24T17:29:27.152Z,73.04
2017-08-24T17:31:55.672Z,73.72
2017-08-24T17:34:24.152Z,73.91
2017-08-24T17:36:52.613Z,74.24
2017-08-24T17:39:21.112Z,73.99
2017-08-24T17:41:49.563Z,74.21
2017-08-24T17:44:18.076Z,74.38
2017-08-24T17:46:46.541Z,74.87
2017-08-24T17:49:15.050Z,74.42
2017-08-24T17:51:43.639Z,74.27
2017-08-24T17:54:12.071Z,74.50
2017-08-24T17:56:40.537Z,74.84
2017-08-24T17:59:09.068Z,75.21
2017-08-24T18:01:37.542Z,75.55
2017-08-24T18:04:06.031Z,76.09
2017-08-24T18:06:34.516Z,75.99
2017-08-24T18:09:02.982Z,76.16
2017-08-24T18:11:32.176Z,76.29
2017-08-24T18:14:00.667Z,76.64
2017-08-24T18:16:29.163Z,76.96
2017-08-24T18:18:57.615Z,77.59
2017-08-24T18:21:26.139Z,77.45
2017-08-24T18:23:54.604Z,77.64
2017-08-24T18:26:23.091Z,78.02
2017-08-24T18:28:51.549Z,78.26
2017-08-24T18:31:20.052Z,78.50
2017-08-24T18:33:48.505Z,78.57
2017-08-24T18:36:17.025Z,78.77
2017-08-24T18:38:45.496Z,78.76
2017-08-24T18:41:13.929Z,79.08
2017-08-24T18:43:42.385Z,80.03
2017-08-24T18:46:10.825Z,80.20
2017-08-24T18:48:39.254Z,80.33
2017-08-24T18:51:07.708Z,80.20
2017-08-24T18:53:36.165Z,80.41
2017-08-24T18:56:04.681Z,80.83
2017-08-24T18:58:33.147Z,80.69
2017-08-24T19:01:01.630Z,81.22
2017-08-24T19:03:30.127Z,81.35
2017-08-24T19:05:58.660Z,81.43
2017-08-24T19:08:27.106Z,81.29
2017-08-24T19:10:55.684Z,81.41
2017-08-24T19:13:24.111Z,81.64
2017-08-24T19:15:52.704Z,81.73
2017-08-24T19:18:21.148Z,81.67
2017-08-24T19:20:49.604Z,81.45
2017-08-24T19:23:18.076Z,81.79
2017-08-24T19:25:46.556Z,81.71
2017-08-24T19:28:15.048Z,81.82
2017-08-24T19:30:43.519Z,81.99
2017-08-24T19:33:11.994Z,82.33
2017-08-24T19:35:40.494Z,82.63
2017-08-24T19:38:08.920Z,82.50
2017-08-24T19:40:37.386Z,82.49
2017-08-24T19:43:05.939Z,82.64
2017-08-24T19:45:34.416Z,82.48
2017-08-24T19:48:02.887Z,82.75
2017-08-24T19:50:31.337Z,82.86
2017-08-24T19:52:59.793Z,83.25
2017-08-24T19:55:28.330Z,83.14
2017-08-24T19:57:57.636Z,83.35
2017-08-24T20:00:26.117Z,83.36
2017-08-24T20:02:54.585Z,83.02
2017-08-24T20:05:23.075Z,83.04
2017-08-24T20:07:51.542Z,83.35
2017-08-24T20:10:20.764Z,83.51
2017-08-24T20:12:49.247Z,83.44
2017-08-24T20:15:17.666Z,83.14
2017-08-24T20:17:46.134Z,83.56
2017-08-24T20:20:14.592Z,83.31
2017-08-24T20:22:43.085Z,83.60
2017-08-24T20:25:11.566Z,83.81
2017-08-24T20:27:40.032Z,83.44
2017-08-24T20:30:08.516Z,83.43
2017-08-24T20:32:37.014Z,83.60
2017-08-24T20:35:05.491Z,83.67
2017-08-24T20:37:33.940Z,82.75
2017-08-24T20:40:02.392Z,82.76
2017-08-24T20:42:30.923Z,82.32
2017-08-24T20:44:59.412Z,82.17
2017-08-24T20:47:27.906Z,82.19
2017-08-24T20:49:56.363Z,81.80
2017-08-24T20:52:24.856Z,81.45
2017-08-24T20:54:53.336Z,80.99
2017-08-24T20:57:21.922Z,80.89
2017-08-24T20:59:50.385Z,80.88
2017-08-24T21:02:19.598Z,81.37
2017-08-24T21:04:48.102Z,80.69
2017-08-24T21:07:16.568Z,80.45
2017-08-24T21:09:45.060Z,79.88
2017-08-24T21:12:14.332Z,79.96
2017-08-24T21:14:42.790Z,78.97
2017-08-24T21:17:11.311Z,78.72
2017-08-24T21:19:39.778Z,78.49
2017-08-24T21:22:08.694Z,78.35
2017-08-24T21:24:37.182Z,77.54
2017-08-24T21:27:05.655Z,77.42
2017-08-24T21:29:34.122Z,76.84
2017-08-24T21:32:02.538Z,76.93
2017-08-24T21:34:31.092Z,76.67
2017-08-24T21:36:59.520Z,76.41
2017-08-24T21:39:28.057Z,76.53
2017-08-24T21:41:56.493Z,76.37
2017-08-24T21:44:25.037Z,76.24
2017-08-24T21:46:53.504Z,76.64
2017-08-24T21:49:21.996Z,76.75
2017-08-24T21:51:50.443Z,76.73
2017-08-24T21:54:18.943Z,76.87
2017-08-24T21:56:47.436Z,76.73
2017-08-24T21:59:15.915Z,76.57
2017-08-24T22:01:44.395Z,76.80
2017-08-24T22:04:12.881Z,77.01
2017-08-24T22:06:41.308Z,77.42
2017-08-24T22:09:09.851Z,77.34
2017-08-24T22:11:38.334Z,77.87
2017-08-24T22:14:06.813Z,77.98
2017-08-24T22:16:35.288Z,78.42
2017-08-24T22:19:03.785Z,78.31
2017-08-24T22:21:32.257Z,78.12
2017-08-24T22:24:00.716Z,78.33
2017-08-24T22:26:29.152Z,78.51
2017-08-24T22:28:57.604Z,78.87
2017-08-24T22:31:26.067Z,78.75
2017-08-24T22:33:54.570Z,79.19
2017-08-24T22:36:23.050Z,79.24
2017-08-24T22:38:51.514Z,80.00
2017-08-24T22:41:19.940Z,80.08
2017-08-24T22:43:48.500Z,80.71
2017-08-24T22:46:16.944Z,80.90
2017-08-24T22:48:45.683Z,80.79
2017-08-24T22:51:14.207Z,81.08
2017-08-24T22:53:48.113Z,80.84
2017-08-24T22:59:27.054Z,80.84
2017-08-24T23:02:01.132Z,80.80
2017-08-24T23:04:29.605Z,80.30
2017-08-24T23:06:58.072Z,80.40
2017-08-24T23:09:26.559Z,79.89
2017-08-24T23:11:55.013Z,79.71
2017-08-24T23:14:23.528Z,79.56
2017-08-24T23:16:51.989Z,79.43
2017-08-24T23:19:20.474Z,79.42
2017-08-24T23:21:48.925Z,79.76
2017-08-24T23:24:17.452Z,79.60
2017-08-24T23:26:45.900Z,80.13
2017-08-24T23:29:14.423Z,79.91
2017-08-24T23:31:42.892Z,80.22
2017-08-24T23:34:11.371Z,80.41
2017-08-24T23:36:39.859Z,80.46
2017-08-24T23:39:08.296Z,80.50
2017-08-24T23:41:36.743Z,80.25
2017-08-24T23:44:05.191Z,80.46
2017-08-24T23:46:33.636Z,80.27
2017-08-24T23:49:02.159Z,80.38
2017-08-24T23:51:30.613Z,80.23
2017-08-24T23:53:59.143Z,80.21
2017-08-24T23:56:27.604Z,80.19
2017-08-24T23:58:56.024Z,80.20
